createdAt,value
2023-05-24T20:15:55.758Z,27.70
2023-05-24T20:18:21.606Z,36.30
2023-05-24T20:20:46.100Z,40.28
2023-05-24T20:23:10.764Z,34.38
2023-05-24T20:25:35.358Z,38.65
2023-05-24T20:27:59.898Z,36.95
2023-05-24T20:30:24.543Z,34.05
2023-05-24T20:32:50.875Z,34.58
2023-05-24T20:35:15.473Z,33.42
2023-05-24T20:37:40.513Z,31.05
2023-05-24T20:40:05.436Z,28.95
2023-05-24T20:42:31.166Z,28.17
2023-05-24T20:44:55.723Z,28.05
2023-05-24T20:47:20.200Z,27.80
2023-05-24T20:49:46.124Z,26.35
2023-05-24T20:52:10.715Z,24.27
2023-05-24T20:54:35.147Z,27.90
2023-05-24T20:57:00.344Z,20.98
2023-05-24T20:59:24.757Z,22.73
2023-05-24T21:01:49.364Z,20.42
2023-05-24T21:04:14.180Z,17.27
2023-05-24T21:06:40.422Z,16.48
2023-05-24T21:09:06.945Z,14.35
2023-05-24T21:11:31.514Z,12.20
2023-05-24T21:13:56.748Z,13.88
2023-05-24T21:16:21.346Z,15.70
2023-05-24T21:18:46.129Z,13.13
2023-05-24T21:21:11.064Z,13.80
2023-05-24T21:23:37.300Z,13.18
2023-05-24T21:26:02.484Z,12.00
2023-05-24T21:28:27.013Z,10.98
2023-05-24T21:30:51.851Z,9.60
2023-05-24T21:33:16.829Z,13.20
2023-05-24T21:35:41.658Z,9.32
2023-05-24T21:38:06.507Z,8.50
2023-05-24T21:40:32.394Z,6.70
2023-05-24T21:42:56.907Z,9.35
2023-05-24T21:45:21.457Z,7.68
2023-05-24T21:47:46.167Z,8.07
2023-05-24T21:50:11.292Z,9.00
2023-05-24T21:52:35.737Z,9.30
2023-05-24T21:55:00.365Z,7.05
2023-05-24T21:57:26.707Z,8.85
2023-05-24T21:59:51.287Z,8.68
2023-05-24T22:02:15.866Z,6.88
2023-05-24T22:04:40.460Z,9.35
2023-05-24T22:07:05.095Z,7.65
2023-05-24T22:09:29.660Z,11.25
2023-05-24T22:11:54.095Z,8.43
2023-05-24T22:14:20.270Z,8.30
2023-05-24T22:16:44.706Z,9.45
2023-05-24T22:19:14.498Z,8.90
2023-05-24T22:21:41.712Z,11.70
2023-05-24T22:24:06.605Z,7.03
2023-05-24T22:26:31.114Z,11.13
2023-05-24T22:29:00.886Z,7.45
2023-05-24T22:31:29.054Z,6.72
2023-05-24T22:33:53.538Z,8.32
2023-05-24T22:36:18.833Z,8.50
2023-05-24T22:38:44.077Z,7.35
2023-05-24T22:41:08.805Z,9.75
2023-05-24T22:43:33.350Z,8.75
2023-05-24T22:45:58.315Z,9.15
2023-05-24T22:48:26.769Z,8.45
2023-05-24T22:50:52.592Z,11.32
2023-05-24T22:53:17.166Z,7.85
2023-05-24T22:55:42.004Z,8.50
2023-05-24T22:58:06.749Z,9.50
2023-05-24T23:00:31.260Z,8.23
2023-05-24T23:02:55.920Z,7.45
2023-05-24T23:05:24.133Z,13.43
2023-05-24T23:07:49.452Z,9.43
2023-05-24T23:10:14.056Z,9.20
2023-05-24T23:12:42.111Z,10.27
2023-05-24T23:15:07.454Z,10.75
2023-05-24T23:17:32.258Z,7.82
2023-05-24T23:19:56.979Z,9.35
2023-05-24T23:22:24.125Z,9.98
2023-05-24T23:24:49.017Z,10.57
2023-05-24T23:27:13.680Z,11.73
2023-05-24T23:29:39.135Z,11.13
2023-05-24T23:32:03.938Z,10.70
2023-05-24T23:34:28.660Z,8.50
2023-05-24T23:36:53.057Z,9.63
2023-05-24T23:39:19.002Z,10.65
2023-05-24T23:41:43.431Z,10.70
2023-05-24T23:44:07.987Z,9.27
2023-05-24T23:46:32.805Z,16.95
2023-05-24T23:48:57.274Z,11.60
2023-05-24T23:51:21.799Z,12.27
2023-05-24T23:53:48.550Z,14.52
2023-05-24T23:56:14.480Z,14.82
2023-05-24T23:58:38.970Z,14.40
